Time;durP1;ratioP1;P1;durP2;ratioP2;P2;SDS_P1;SDS_P2;PMS_P1;PMS_P2;Temp;Humidity;BMP_temperature;BMP_pressure;BME280_temperature;BME280_humidity;BME280_pressure;Samples;Min_cycle;Max_cycle;Signal;HPM_P1;HPM_P2
2024/01/01 00:00:03;;;;;;;144.70;90.30;;;;;;;2.31;100.00;96929.45;106625;1283;23394;-80
2024/01/01 00:02:39;;;;;;;119.50;82.50;;;;;;;2.25;100.00;96926.64;106660;1283;24650;-80
2024/01/01 00:05:08;;;;;;;106.70;80.40;;;;;;;2.27;100.00;96934.66;106885;1279;25442;-80
2024/01/01 00:07:36;;;;;;;91.10;70.80;;;;;;;2.30;100.00;96935.71;106670;1283;22543;-79
2024/01/01 00:10:05;;;;;;;104.50;77.50;;;;;;;2.28;100.00;96937.90;106623;1283;22623;-79
2024/01/01 00:12:33;;;;;;;137.40;96.40;;;;;;;2.26;100.00;96935.57;106780;1283;22601;-80
2024/01/01 00:15:01;;;;;;;152.10;109.40;;;;;;;2.26;100.00;96937.05;106692;1283;22534;-78
2024/01/01 00:17:29;;;;;;;96.50;78.10;;;;;;;2.26;100.00;96937.48;106794;1283;22757;-78
2024/01/01 00:19:59;;;;;;;118.40;85.40;;;;;;;2.25;100.00;96937.11;106629;1283;22734;-79
2024/01/01 00:22:27;;;;;;;113.70;83.30;;;;;;;2.27;100.00;96936.14;106747;1283;22559;-81
2024/01/01 00:24:55;;;;;;;98.70;79.70;;;;;;;2.31;100.00;96936.52;106691;1283;25183;-80
2024/01/01 00:27:23;;;;;;;96.20;79.50;;;;;;;2.31;100.00;96934.92;106805;1283;22756;-79
2024/01/01 00:29:51;;;;;;;110.20;88.20;;;;;;;2.31;100.00;96939.17;106609;1283;22532;-78
2024/01/01 00:32:20;;;;;;;129.00;94.00;;;;;;;2.28;100.00;96942.79;106301;1283;22937;-79
2024/01/01 00:34:48;;;;;;;115.00;86.50;;;;;;;2.18;100.00;96938.17;106691;1283;25387;-81
2024/01/01 00:37:16;;;;;;;101.60;90.50;;;;;;;2.17;100.00;96932.86;106579;1283;24350;-80
2024/01/01 00:39:44;;;;;;;94.00;81.50;;;;;;;2.22;100.00;96932.33;106701;1283;25344;-80
2024/01/01 00:42:12;;;;;;;70.80;63.70;;;;;;;2.19;100.00;96933.88;106475;1283;27881;-80
2024/01/01 00:44:43;;;;;;;75.60;68.00;;;;;;;2.19;100.00;96933.61;106624;1283;22589;-81
2024/01/01 00:47:11;;;;;;;75.00;67.30;;;;;;;2.21;100.00;96932.80;106631;1260;22677;-81
2024/01/01 00:49:40;;;;;;;74.30;67.20;;;;;;;2.22;100.00;96938.39;106694;1283;24406;-80
2024/01/01 00:52:08;;;;;;;64.90;58.60;;;;;;;2.20;100.00;96940.46;106660;1283;25379;-80
2024/01/01 00:54:36;;;;;;;67.20;60.10;;;;;;;2.21;100.00;96939.19;106504;1285;22543;-80
2024/01/01 00:57:04;;;;;;;65.50;58.70;;;;;;;2.22;100.00;96938.38;106710;1285;25401;-80
2024/01/01 00:59:32;;;;;;;67.00;60.20;;;;;;;2.26;100.00;96932.38;106630;1285;22638;-80
2024/01/01 01:02:00;;;;;;;62.30;56.20;;;;;;;2.26;100.00;96934.89;106538;1285;22626;-80
2024/01/01 01:04:28;;;;;;;62.20;56.00;;;;;;;2.26;100.00;96936.58;106475;1285;22554;-79
2024/01/01 01:06:57;;;;;;;63.30;57.40;;;;;;;2.23;100.00;96933.83;106567;1285;22540;-81
2024/01/01 01:09:25;;;;;;;56.10;50.70;;;;;;;2.21;100.00;96929.79;106543;1285;22544;-80
2024/01/01 01:11:53;;;;;;;53.20;48.00;;;;;;;2.23;100.00;96929.99;106614;1285;23711;-80
2024/01/01 01:14:21;;;;;;;50.60;45.70;;;;;;;2.33;100.00;96920.98;106601;1285;25376;-80
2024/01/01 01:16:49;;;;;;;52.60;47.60;;;;;;;2.41;100.00;96913.26;106557;1285;22544;-80
2024/01/01 01:19:17;;;;;;;64.00;57.90;;;;;;;2.49;100.00;96916.58;106634;1285;22619;-80
2024/01/01 01:21:45;;;;;;;64.20;58.10;;;;;;;2.49;100.00;96921.42;106606;1285;22629;-80
2024/01/01 01:24:15;;;;;;;67.40;60.90;;;;;;;2.38;100.00;96915.45;106554;1285;22552;-80
2024/01/01 01:26:44;;;;;;;80.30;72.80;;;;;;;2.35;100.00;96922.16;106503;1285;24243;-80
2024/01/01 01:29:13;;;;;;;63.80;57.40;;;;;;;2.34;100.00;96915.89;106760;1285;24267;-80
2024/01/01 01:31:42;;;;;;;62.70;56.60;;;;;;;2.33;100.00;96917.00;106617;1285;24233;-80
2024/01/01 01:34:10;;;;;;;57.80;51.70;;;;;;;2.28;100.00;96920.48;106754;1270;22605;-81
2024/01/01 01:36:38;;;;;;;55.00;49.60;;;;;;;2.22;100.00;96924.30;106565;1285;24374;-80
2024/01/01 01:39:06;;;;;;;64.80;58.90;;;;;;;2.18;100.00;96920.95;106577;1275;24118;-80
2024/01/01 01:41:37;;;;;;;60.00;54.50;;;;;;;2.13;100.00;96921.98;106557;1282;25344;-81
2024/01/01 01:44:05;;;;;;;58.60;53.00;;;;;;;2.09;100.00;96916.04;106458;1285;25438;-81
2024/01/01 01:46:34;;;;;;;57.10;51.50;;;;;;;2.12;100.00;96920.12;106544;1285;25391;-80
2024/01/01 01:49:02;;;;;;;59.70;53.80;;;;;;;2.09;100.00;96920.02;106466;1285;23369;-80
2024/01/01 01:51:31;;;;;;;56.90;51.30;;;;;;;1.99;100.00;96920.93;106474;1279;24421;-80
2024/01/01 01:53:59;;;;;;;54.40;49.20;;;;;;;1.94;100.00;96919.93;106430;1285;22550;-80
2024/01/01 01:56:28;;;;;;;51.20;46.30;;;;;;;1.95;100.00;96920.77;106545;1269;23372;-80
2024/01/01 01:58:56;;;;;;;54.50;49.40;;;;;;;1.88;100.00;96910.27;106620;1284;25443;-80
2024/01/01 02:01:25;;;;;;;53.00;47.70;;;;;;;1.86;100.00;96917.38;106512;1284;22657;-80
2024/01/01 02:03:53;;;;;;;51.20;46.10;;;;;;;1.89;100.00;96925.13;106704;1284;23909;-80
2024/01/01 02:06:21;;;;;;;48.80;44.20;;;;;;;1.85;100.00;96938.68;106648;1284;25398;-80
2024/01/01 02:08:50;;;;;;;51.90;46.80;;;;;;;1.84;100.00;96949.31;106670;1268;24224;-80
2024/01/01 02:11:18;;;;;;;54.00;48.70;;;;;;;1.79;100.00;96956.48;106956;1270;23922;-79
2024/01/01 02:13:46;;;;;;;52.70;47.80;;;;;;;1.71;100.00;96972.34;106894;1284;22707;-82
2024/01/01 02:16:14;;;;;;;47.60;43.00;;;;;;;1.72;100.00;96973.95;106685;1284;24279;-80
2024/01/01 02:18:42;;;;;;;46.90;42.30;;;;;;;1.78;100.00;96977.14;106607;1284;22571;-80
2024/01/01 02:21:11;;;;;;;49.20;44.50;;;;;;;1.89;100.00;96973.48;106718;1284;24280;-81
2024/01/01 02:23:39;;;;;;;52.60;47.80;;;;;;;1.98;100.00;96982.20;106603;1284;24295;-80
2024/01/01 02:26:07;;;;;;;59.50;54.00;;;;;;;2.05;100.00;96986.30;106646;1284;22742;-80
2024/01/01 02:28:36;;;;;;;66.40;59.60;;;;;;;2.03;100.00;96969.71;106663;1284;24249;-80
2024/01/01 02:31:04;;;;;;;55.20;50.00;;;;;;;2.10;100.00;96962.69;106611;1284;24414;-80
2024/01/01 02:33:32;;;;;;;56.30;51.00;;;;;;;2.09;100.00;96957.80;106626;1284;22840;-80
2024/01/01 02:36:00;;;;;;;55.90;50.60;;;;;;;2.08;100.00;96956.21;106568;1284;22547;-80
2024/01/01 02:38:28;;;;;;;54.20;48.90;;;;;;;2.11;100.00;96953.23;106647;1284;22550;-80
2024/01/01 02:40:56;;;;;;;53.40;48.40;;;;;;;2.16;100.00;96957.63;106525;1284;22685;-80
2024/01/01 02:43:24;;;;;;;57.90;52.30;;;;;;;2.14;100.00;96947.97;106575;1284;22555;-80
2024/01/01 02:45:52;;;;;;;55.50;50.50;;;;;;;2.14;100.00;96941.90;106516;1284;22680;-80
2024/01/01 02:48:20;;;;;;;60.60;55.00;;;;;;;2.11;100.00;96937.23;106589;1284;22593;-80
2024/01/01 02:50:48;;;;;;;52.10;47.20;;;;;;;2.07;100.00;96940.64;106571;1284;22564;-80
2024/01/01 02:53:16;;;;;;;57.60;52.30;;;;;;;2.05;100.00;96934.31;106596;1284;25019;-78
2024/01/01 02:55:44;;;;;;;55.00;49.70;;;;;;;2.03;100.00;96933.59;106622;1284;22543;-80
2024/01/01 02:58:12;;;;;;;53.10;48.00;;;;;;;2.00;100.00;96934.33;106669;1284;22619;-80
2024/01/01 03:00:41;;;;;;;57.10;51.80;;;;;;;1.97;100.00;96931.77;106504;1284;22557;-81
2024/01/01 03:03:09;;;;;;;62.80;57.00;;;;;;;1.95;100.00;96933.73;106519;1284;22546;-80
2024/01/01 03:05:37;;;;;;;66.20;60.20;;;;;;;1.92;100.00;96928.05;106569;1284;22571;-80
2024/01/01 03:08:05;;;;;;;63.80;57.70;;;;;;;1.86;100.00;96932.09;106569;1284;23174;-80
2024/01/01 03:10:34;;;;;;;63.00;57.10;;;;;;;1.84;100.00;96933.33;106725;1284;24277;-80
2024/01/01 03:13:02;;;;;;;62.00;56.10;;;;;;;1.89;100.00;96933.41;106677;1284;25436;-80
2024/01/01 03:15:30;;;;;;;61.70;55.90;;;;;;;1.93;100.00;96927.59;106727;1284;23140;-79
2024/01/01 03:17:58;;;;;;;81.80;74.70;;;;;;;1.97;100.00;96924.91;106625;1284;23376;-81
2024/01/01 03:20:31;;;;;;;87.60;78.40;;;;;;;2.00;100.00;96924.80;106671;1284;22682;-80
2024/01/01 03:22:59;;;;;;;79.60;72.30;;;;;;;2.02;100.00;96924.65;106648;1284;25421;-80
2024/01/01 03:25:28;;;;;;;67.00;60.80;;;;;;;2.02;100.00;96920.87;107081;1284;22566;-80
2024/01/01 03:27:56;;;;;;;67.50;61.10;;;;;;;2.02;100.00;96924.33;106658;1284;22774;-80
2024/01/01 03:30:24;;;;;;;65.10;58.80;;;;;;;2.06;100.00;96922.10;106559;1284;22577;-80
2024/01/01 03:32:53;;;;;;;59.20;53.50;;;;;;;2.11;100.00;96919.11;106552;1284;22599;-79
2024/01/01 03:35:22;;;;;;;61.50;55.40;;;;;;;2.15;100.00;96915.13;106312;1284;25542;-79
2024/01/01 03:37:49;;;;;;;67.00;60.30;;;;;;;2.13;100.00;96909.65;106727;1284;24256;-79
2024/01/01 03:40:18;;;;;;;69.90;63.20;;;;;;;2.08;100.00;96906.09;106726;1284;22668;-79
2024/01/01 03:42:46;;;;;;;65.40;59.10;;;;;;;2.06;100.00;96905.36;106622;1284;24242;-79
2024/01/01 03:45:14;;;;;;;85.40;77.40;;;;;;;2.09;100.00;96898.55;106583;1284;24231;-79
2024/01/01 03:47:42;;;;;;;58.40;53.00;;;;;;;2.15;100.00;96889.83;106616;1284;22550;-79
2024/01/01 03:50:10;;;;;;;56.50;51.20;;;;;;;2.20;100.00;96885.19;106634;1284;22632;-79
2024/01/01 03:52:38;;;;;;;61.90;56.20;;;;;;;2.28;100.00;96879.85;106642;1284;23287;-79
2024/01/01 03:55:07;;;;;;;73.80;67.10;;;;;;;2.32;100.00;96874.57;106539;1284;24227;-79
2024/01/01 03:57:35;;;;;;;74.30;67.30;;;;;;;2.30;100.00;96865.61;106643;1284;25493;-79
2024/01/01 04:00:06;;;;;;;62.10;56.10;;;;;;;2.33;100.00;96866.23;106557;1260;22578;-79
2024/01/01 04:02:35;;;;;;;61.00;54.70;;;;;;;2.39;100.00;96865.63;106542;1284;22658;-79
2024/01/01 04:05:04;;;;;;;59.00;53.30;;;;;;;2.54;100.00;96867.16;106625;1284;24328;-79
2024/01/01 04:07:37;;;;;;;64.70;58.40;;;;;;;2.69;100.00;96873.16;106678;1284;23763;-79
2024/01/01 04:10:06;;;;;;;64.20;58.00;;;;;;;2.92;100.00;96875.34;106258;1284;25398;-79
2024/01/01 04:12:34;;;;;;;67.70;61.30;;;;;;;3.11;100.00;96882.68;106677;1284;22755;-79
2024/01/01 04:15:03;;;;;;;86.90;78.70;;;;;;;3.03;100.00;96886.52;106646;1284;25605;-79
2024/01/01 04:17:32;;;;;;;85.30;77.00;;;;;;;2.84;100.00;96889.97;106560;1284;23062;-79
2024/01/01 04:20:00;;;;;;;96.30;86.30;;;;;;;2.73;100.00;96883.77;106605;1284;25270;-80
2024/01/01 04:22:28;;;;;;;92.30;82.90;;;;;;;2.70;100.00;96880.91;106777;1284;23230;-80
2024/01/01 04:24:56;;;;;;;77.20;69.60;;;;;;;2.69;100.00;96878.55;106788;1284;25432;-79
2024/01/01 04:27:24;;;;;;;77.50;69.90;;;;;;;2.71;100.00;96877.47;106648;1284;22711;-80
2024/01/01 04:29:53;;;;;;;76.60;69.30;;;;;;;2.65;100.00;96875.20;106595;1284;22632;-80
2024/01/01 04:32:21;;;;;;;76.50;68.70;;;;;;;2.63;100.00;96876.13;106617;1284;25546;-80
2024/01/01 04:34:49;;;;;;;74.60;67.20;;;;;;;2.66;100.00;96881.75;106655;1284;23911;-80
2024/01/01 04:37:17;;;;;;;76.10;68.80;;;;;;;2.68;100.00;96879.50;106622;1284;22613;-79
2024/01/01 04:39:45;;;;;;;81.00;72.40;;;;;;;2.68;100.00;96876.48;106512;1284;22611;-79
2024/01/01 04:42:13;;;;;;;82.10;72.00;;;;;;;2.73;100.00;96873.32;106222;1284;25132;-79
2024/01/01 04:44:41;;;;;;;80.40;72.40;;;;;;;2.78;100.00;96868.02;106492;1275;23951;-79
2024/01/01 04:47:09;;;;;;;91.90;76.70;;;;;;;2.85;100.00;96860.80;106520;1284;25463;-79
2024/01/01 04:49:37;;;;;;;83.30;73.90;;;;;;;2.89;100.00;96856.84;106517;1284;25344;-79
2024/01/01 04:52:05;;;;;;;83.10;73.50;;;;;;;2.97;100.00;96857.38;106523;1284;23372;-79
2024/01/01 04:54:33;;;;;;;87.70;77.20;;;;;;;3.04;100.00;96854.89;106548;1283;25518;-79
2024/01/01 04:57:01;;;;;;;84.80;76.70;;;;;;;3.06;100.00;96839.88;106622;1283;24303;-79
2024/01/01 04:59:29;;;;;;;88.90;80.00;;;;;;;3.03;100.00;96837.17;106734;1283;24262;-78
2024/01/01 05:01:57;;;;;;;91.50;81.70;;;;;;;2.95;100.00;96841.33;106669;1283;22645;-79
2024/01/01 05:04:25;;;;;;;95.30;85.20;;;;;;;2.85;100.00;96840.31;106912;1283;24322;-79
2024/01/01 05:06:53;;;;;;;100.00;84.10;;;;;;;2.79;100.00;96832.32;106786;1283;22727;-79
2024/01/01 05:09:21;;;;;;;103.20;91.40;;;;;;;2.75;100.00;96825.58;106698;1283;22686;-79
2024/01/01 05:11:49;;;;;;;113.10;97.00;;;;;;;2.73;100.00;96825.32;106923;1283;23021;-79
2024/01/01 05:14:17;;;;;;;118.90;99.60;;;;;;;2.71;100.00;96820.39;106656;1283;22552;-79
2024/01/01 05:16:47;;;;;;;110.70;90.20;;;;;;;2.72;100.00;96816.23;106720;1283;22553;-79
2024/01/01 05:19:16;;;;;;;98.30;86.80;;;;;;;2.75;100.00;96808.81;106673;1283;25539;-79
2024/01/01 05:21:44;;;;;;;86.10;77.50;;;;;;;2.79;100.00;96808.91;106670;1283;25330;-79
2024/01/01 05:24:12;;;;;;;87.10;78.70;;;;;;;2.82;100.00;96802.23;106741;1283;23341;-79
2024/01/01 05:26:40;;;;;;;92.80;82.70;;;;;;;2.86;100.00;96805.77;106585;1283;22636;-80
2024/01/01 05:29:08;;;;;;;91.40;81.70;;;;;;;2.90;100.00;96799.95;106712;1260;22614;-79
2024/01/01 05:31:36;;;;;;;98.70;88.10;;;;;;;2.93;100.00;96797.20;106628;1283;24436;-79
2024/01/01 05:34:05;;;;;;;86.50;77.60;;;;;;;2.94;100.00;96799.34;106790;1283;24258;-80
2024/01/01 05:36:32;;;;;;;85.00;75.90;;;;;;;2.97;100.00;96803.84;106705;1283;22667;-79
2024/01/01 05:39:00;;;;;;;93.50;80.50;;;;;;;3.04;100.00;96805.45;106823;1283;22618;-79
2024/01/01 05:41:29;;;;;;;88.40;79.20;;;;;;;3.08;100.00;96804.23;106691;1283;24515;-79
2024/01/01 05:43:57;;;;;;;98.40;85.70;;;;;;;3.13;100.00;96805.08;106486;1283;25541;-79
2024/01/01 05:46:25;;;;;;;116.60;94.00;;;;;;;3.14;100.00;96807.77;106704;1283;24408;-79
2024/01/01 05:48:53;;;;;;;121.10;95.50;;;;;;;3.11;100.00;96807.91;106655;1283;25400;-79
2024/01/01 05:51:21;;;;;;;112.70;87.70;;;;;;;3.09;100.00;96810.68;106722;1283;22767;-79
2024/01/01 05:53:50;;;;;;;106.30;85.60;;;;;;;3.07;100.00;96817.67;106706;1283;25430;-79
2024/01/01 05:56:18;;;;;;;97.80;85.60;;;;;;;3.02;100.00;96812.48;106675;1283;22674;-79
2024/01/01 05:58:46;;;;;;;121.90;91.40;;;;;;;2.96;100.00;96808.86;106491;1283;22546;-79
2024/01/01 06:01:14;;;;;;;123.20;94.70;;;;;;;2.94;100.00;96808.06;106652;1283;26657;-79
2024/01/01 06:03:42;;;;;;;119.10;89.50;;;;;;;2.92;100.00;96806.48;106632;1283;22550;-81
2024/01/01 06:06:10;;;;;;;115.30;90.00;;;;;;;2.90;100.00;96815.11;106632;1283;22668;-79
2024/01/01 06:08:38;;;;;;;100.60;84.70;;;;;;;2.89;100.00;96812.78;106695;1283;25411;-79
2024/01/01 06:11:06;;;;;;;139.10;96.60;;;;;;;2.91;100.00;96811.48;106653;1283;25276;-79
2024/01/01 06:13:34;;;;;;;113.50;92.70;;;;;;;2.87;100.00;96813.42;106638;1283;24387;-79
2024/01/01 06:16:03;;;;;;;120.80;94.50;;;;;;;2.80;100.00;96818.70;106760;1283;22563;-80
2024/01/01 06:18:31;;;;;;;102.60;84.10;;;;;;;2.73;100.00;96819.41;106831;1283;25417;-78
2024/01/01 06:20:59;;;;;;;83.80;75.40;;;;;;;2.69;100.00;96815.13;106904;1283;24265;-80
2024/01/01 06:23:27;;;;;;;80.80;72.50;;;;;;;2.69;100.00;96815.13;106375;1283;22551;-78
2024/01/01 06:25:55;;;;;;;83.60;74.80;;;;;;;2.69;100.00;96817.24;106708;1283;24292;-80
2024/01/01 06:28:26;;;;;;;82.90;74.50;;;;;;;2.70;100.00;96819.70;106692;1283;25302;-80
2024/01/01 06:30:54;;;;;;;93.40;83.40;;;;;;;2.65;100.00;96824.41;106682;1283;22541;-80
2024/01/01 06:33:22;;;;;;;87.10;77.70;;;;;;;2.60;100.00;96827.30;106688;1283;24019;-80
2024/01/01 06:35:50;;;;;;;90.10;79.80;;;;;;;2.57;100.00;96832.48;106594;1283;22607;-80
2024/01/01 06:38:18;;;;;;;89.40;79.80;;;;;;;2.53;100.00;96839.98;106703;1283;26675;-80
2024/01/01 06:40:46;;;;;;;96.00;85.60;;;;;;;2.47;100.00;96845.65;106722;1283;22558;-80
2024/01/01 06:43:14;;;;;;;108.90;90.70;;;;;;;2.43;100.00;96853.53;106680;1283;25267;-80
2024/01/01 06:45:42;;;;;;;111.60;88.10;;;;;;;2.39;100.00;96860.73;106614;1283;23285;-79
2024/01/01 06:48:11;;;;;;;105.10;88.10;;;;;;;2.40;100.00;96868.66;106644;1274;24068;-80
2024/01/01 06:50:39;;;;;;;98.40;85.50;;;;;;;2.45;100.00;96879.11;106877;1283;24298;-80
2024/01/01 06:53:07;;;;;;;105.10;89.60;;;;;;;2.49;100.00;96879.52;106889;1283;22720;-80
2024/01/01 06:56:26;;;;;;;125.20;96.30;;;;;;;2.50;100.00;96881.80;106589;1283;25476;-80
2024/01/01 06:58:54;;;;;;;112.60;90.80;;;;;;;2.52;100.00;96876.95;106564;1283;23350;-80
2024/01/01 07:01:22;;;;;;;104.10;88.40;;;;;;;2.58;100.00;96876.14;106646;1283;22690;-82
2024/01/01 07:03:50;;;;;;;108.30;88.20;;;;;;;2.63;100.00;96877.08;106704;1283;24356;-79
2024/01/01 07:06:18;;;;;;;105.20;88.70;;;;;;;2.68;100.00;96869.66;106683;1283;25369;-80
2024/01/01 07:08:46;;;;;;;103.30;89.40;;;;;;;2.74;100.00;96869.43;106629;1283;25397;-79
2024/01/01 07:11:14;;;;;;;116.30;95.70;;;;;;;2.77;100.00;96867.60;106783;1283;22646;-80
2024/01/01 07:13:43;;;;;;;111.70;90.20;;;;;;;2.80;100.00;96867.60;106732;1283;22615;-80
2024/01/01 07:16:11;;;;;;;106.80;89.30;;;;;;;2.84;100.00;96869.16;106807;1283;22539;-80
2024/01/01 07:18:39;;;;;;;95.60;84.30;;;;;;;2.92;100.00;96873.48;106651;1283;22539;-80
2024/01/01 07:21:07;;;;;;;95.20;84.90;;;;;;;3.00;100.00;96885.56;106666;1283;24228;-80
2024/01/01 07:23:35;;;;;;;104.50;88.60;;;;;;;3.04;100.00;96894.76;106737;1283;22790;-81
2024/01/01 07:26:04;;;;;;;114.30;95.40;;;;;;;3.05;100.00;96898.75;106706;1261;22880;-80
2024/01/01 07:28:32;;;;;;;126.50;90.40;;;;;;;3.03;100.00;96896.26;106711;1283;22690;-81
2024/01/01 07:31:00;;;;;;;98.80;84.20;;;;;;;3.01;100.00;96899.48;106688;1283;22556;-78
2024/01/01 07:33:28;;;;;;;101.30;83.30;;;;;;;3.04;100.00;96904.23;106597;1283;25359;-78
2024/01/01 07:35:56;;;;;;;98.20;84.20;;;;;;;3.08;100.00;96907.14;106657;1283;22780;-78
2024/01/01 07:38:24;;;;;;;84.30;75.80;;;;;;;3.11;100.00;96903.13;106338;1283;23090;-81
2024/01/01 07:40:52;;;;;;;97.20;86.40;;;;;;;3.12;100.00;96906.58;106723;1283;22546;-81
2024/01/01 07:43:22;;;;;;;89.60;79.50;;;;;;;3.10;100.00;96910.80;106879;1283;22537;-81
2024/01/01 07:45:50;;;;;;;80.00;72.10;;;;;;;3.07;100.00;96915.51;106588;1283;22543;-80
2024/01/01 07:48:18;;;;;;;80.30;72.60;;;;;;;3.10;100.00;96917.77;107214;1283;24252;-79
2024/01/01 07:50:46;;;;;;;81.80;73.90;;;;;;;3.13;100.00;96921.29;106747;1283;22546;-80
2024/01/01 07:53:15;;;;;;;88.30;79.50;;;;;;;3.16;100.00;96919.66;106573;1280;22622;-81
2024/01/01 07:55:43;;;;;;;86.90;78.10;;;;;;;3.16;100.00;96918.87;107043;1283;24195;-82
2024/01/01 07:58:11;;;;;;;76.70;69.40;;;;;;;3.14;100.00;96913.50;106821;1283;22596;-81
2024/01/01 08:00:39;;;;;;;79.80;72.10;;;;;;;3.11;100.00;96913.73;106491;1283;24185;-81
2024/01/01 08:03:07;;;;;;;75.70;68.30;;;;;;;3.13;100.00;96914.46;107092;1283;23013;-82
2024/01/01 08:05:35;;;;;;;76.80;68.90;;;;;;;3.14;100.00;96906.53;106289;1283;23007;-80
2024/01/01 08:08:04;;;;;;;77.10;69.80;;;;;;;3.18;100.00;96909.86;106254;1283;22556;-82
2024/01/01 08:10:32;;;;;;;69.10;62.30;;;;;;;3.19;100.00;96909.52;106714;1283;22959;-81
2024/01/01 08:13:00;;;;;;;69.30;62.70;;;;;;;3.18;100.00;96908.31;106760;1283;24244;-81
2024/01/01 08:15:28;;;;;;;56.10;50.80;;;;;;;3.18;100.00;96904.15;106684;1283;24262;-82
2024/01/01 08:17:56;;;;;;;51.00;46.20;;;;;;;3.13;100.00;96904.45;106684;1283;24691;-82
2024/01/01 08:20:24;;;;;;;53.90;49.10;;;;;;;3.15;100.00;96897.11;106638;1283;25387;-82
2024/01/01 08:22:52;;;;;;;51.20;46.20;;;;;;;3.14;100.00;96888.64;106635;1277;22577;-82
2024/01/01 08:25:20;;;;;;;47.90;43.40;;;;;;;3.11;100.00;96885.79;106508;1283;22554;-82
2024/01/01 08:27:49;;;;;;;51.60;46.70;;;;;;;3.10;100.00;96887.23;106584;1283;22683;-82
2024/01/01 08:30:17;;;;;;;47.00;42.60;;;;;;;3.10;100.00;96887.98;106605;1283;24248;-81
2024/01/01 08:32:45;;;;;;;35.30;31.80;;;;;;;3.10;100.00;96892.93;106520;1283;25267;-81
2024/01/01 08:35:13;;;;;;;29.20;26.40;;;;;;;3.07;100.00;96893.84;106731;1283;22691;-81
2024/01/01 08:37:43;;;;;;;28.30;25.60;;;;;;;3.05;100.00;96898.48;106583;1283;22652;-81
2024/01/01 08:40:12;;;;;;;24.70;22.30;;;;;;;3.02;100.00;96897.28;106428;1283;23359;-82
2024/01/01 08:42:40;;;;;;;24.70;22.20;;;;;;;3.03;100.00;96894.34;106629;1283;22626;-82
2024/01/01 08:45:09;;;;;;;17.80;16.10;;;;;;;3.00;100.00;96896.96;106603;1283;23424;-81
2024/01/01 08:47:37;;;;;;;15.40;14.00;;;;;;;2.97;100.00;96894.58;106725;1283;24361;-81
2024/01/01 08:50:08;;;;;;;18.10;16.30;;;;;;;2.92;100.00;96898.96;106668;1283;22539;-82
2024/01/01 08:52:36;;;;;;;17.40;15.70;;;;;;;2.87;100.00;96903.52;106850;1283;24508;-82
2024/01/01 08:55:05;;;;;;;19.90;17.90;;;;;;;2.83;100.00;96904.70;107374;1280;22609;-82
2024/01/01 08:57:34;;;;;;;17.10;15.50;;;;;;;2.83;100.00;96904.91;107943;1283;22543;-82
2024/01/01 09:00:05;;;;;;;16.80;15.20;;;;;;;2.78;100.00;96910.31;106699;1273;22586;-81
2024/01/01 09:02:33;;;;;;;16.60;15.00;;;;;;;2.71;100.00;96916.93;106629;1283;25368;-81
2024/01/01 09:05:02;;;;;;;16.20;14.60;;;;;;;2.67;100.00;96915.52;106683;1283;23045;-81
2024/01/01 09:07:30;;;;;;;14.40;12.90;;;;;;;2.67;100.00;96915.94;106602;1283;22592;-81
2024/01/01 09:10:00;;;;;;;12.40;11.20;;;;;;;2.66;100.00;96917.34;106312;1283;22625;-81
2024/01/01 09:12:29;;;;;;;14.40;12.40;;;;;;;2.64;100.00;96921.70;106399;1283;22659;-83
2024/01/01 09:14:57;;;;;;;12.70;11.40;;;;;;;2.60;100.00;96925.90;106684;1283;22593;-82
2024/01/01 09:17:25;;;;;;;13.50;11.10;;;;;;;2.54;100.00;96933.27;106649;1283;25300;-83
2024/01/01 09:19:53;;;;;;;12.20;11.00;;;;;;;2.51;100.00;96937.38;106618;1283;24237;-81
2024/01/01 09:22:21;;;;;;;11.70;10.50;;;;;;;2.52;100.00;96944.55;106276;1283;24220;-82
2024/01/01 09:24:49;;;;;;;10.60;9.50;;;;;;;2.49;100.00;96942.96;106561;1283;22572;-81
2024/01/01 09:27:18;;;;;;;10.10;9.00;;;;;;;2.44;100.00;96948.82;106685;1283;25397;-81
2024/01/01 09:29:46;;;;;;;10.40;9.30;;;;;;;2.39;100.00;96946.45;106600;1283;22564;-82
2024/01/01 09:32:14;;;;;;;8.90;8.00;;;;;;;2.32;100.00;96954.81;106621;1283;22547;-82
2024/01/01 09:34:42;;;;;;;8.70;7.80;;;;;;;2.27;100.00;96955.71;106666;1283;25440;-82
2024/01/01 09:37:10;;;;;;;11.90;8.60;;;;;;;2.26;100.00;96950.98;106717;1283;23449;-82
2024/01/01 09:39:38;;;;;;;8.80;7.90;;;;;;;2.20;100.00;96947.00;106617;1283;22548;-82
2024/01/01 09:42:07;;;;;;;9.20;8.30;;;;;;;2.15;100.00;96952.91;106671;1283;25343;-82
2024/01/01 09:44:37;;;;;;;8.20;7.40;;;;;;;2.08;100.00;96950.30;106623;1277;24107;-82
2024/01/01 09:47:06;;;;;;;7.70;6.90;;;;;;;1.92;100.00;96947.13;106694;1283;25364;-82
2024/01/01 09:49:35;;;;;;;9.00;7.00;;;;;;;1.79;100.00;96940.91;106722;1274;24234;-82
2024/01/01 09:52:03;;;;;;;10.00;9.10;;;;;;;1.73;100.00;96941.17;106550;1283;167552;-82
2024/01/01 09:54:33;;;;;;;9.20;8.30;;;;;;;1.64;100.00;96941.86;106701;1283;23900;-82
2024/01/01 09:57:01;;;;;;;9.80;8.80;;;;;;;1.53;100.00;96940.63;106500;1283;22541;-82
2024/01/01 09:59:36;;;;;;;8.60;7.70;;;;;;;1.39;100.00;96934.66;106709;1283;25206;-82
2024/01/01 10:02:07;;;;;;;9.30;8.40;;;;;;;1.34;100.00;96933.64;106538;1283;25286;-81
2024/01/01 10:04:35;;;;;;;10.00;8.90;;;;;;;1.26;100.00;96929.75;106672;1283;25576;-82
2024/01/01 10:07:04;;;;;;;10.70;9.60;;;;;;;1.14;100.00;96932.64;106820;1283;24231;-82
2024/01/01 10:09:32;;;;;;;10.60;9.50;;;;;;;1.08;100.00;96933.36;106999;1283;22674;-82
2024/01/01 10:12:09;;;;;;;12.00;10.80;;;;;;;1.02;100.00;96934.84;106848;1283;24307;-82
2024/01/01 10:14:46;;;;;;;14.00;12.60;;;;;;;0.94;100.00;96927.97;106872;1283;24100;-81
2024/01/01 10:17:20;;;;;;;15.20;13.70;;;;;;;0.85;100.00;96934.19;106836;1283;22531;-82
2024/01/01 10:20:02;;;;;;;15.20;13.70;;;;;;;0.75;100.00;96932.94;106667;1283;22605;-82
2024/01/01 10:22:32;;;;;;;14.30;13.00;;;;;;;0.70;100.00;96926.66;107497;1283;22512;-82
2024/01/01 10:25:11;;;;;;;13.50;12.20;;;;;;;0.64;100.00;96926.31;106888;1283;22547;-81
2024/01/01 10:27:39;;;;;;;13.50;12.20;;;;;;;0.57;100.00;96932.00;106630;1283;23248;-82
2024/01/01 10:30:07;;;;;;;12.70;11.60;;;;;;;0.54;100.00;96930.40;106675;1283;23504;-82
2024/01/01 10:32:36;;;;;;;13.40;12.20;;;;;;;0.50;100.00;96927.62;106549;1283;24781;-82
2024/01/01 10:35:05;;;;;;;14.30;13.00;;;;;;;0.46;100.00;96923.95;106676;1283;24297;-82
2024/01/01 10:37:34;;;;;;;12.10;10.90;;;;;;;0.41;100.00;96926.15;106647;1283;24444;-82
2024/01/01 10:40:05;;;;;;;14.40;13.00;;;;;;;0.37;100.00;96925.75;106673;1283;24257;-80
2024/01/01 10:42:34;;;;;;;12.60;11.40;;;;;;;0.37;100.00;96922.75;106762;1283;22577;-81
2024/01/01 10:45:06;;;;;;;16.20;14.70;;;;;;;0.35;100.00;96921.98;106290;1283;23424;-81
2024/01/01 10:47:41;;;;;;;15.40;13.90;;;;;;;0.33;100.00;96919.90;106872;1283;25438;-81
2024/01/01 10:50:28;;;;;;;16.70;15.10;;;;;;;0.30;100.00;96925.45;106867;1283;25460;-81
2024/01/01 10:53:00;;;;;;;17.40;15.80;;;;;;;0.28;100.00;96925.55;106712;1283;22566;-82
2024/01/01 10:55:49;;;;;;;17.20;15.50;;;;;;;0.29;100.00;96917.17;106826;1283;22952;-82
2024/01/01 10:58:43;;;;;;;19.90;18.10;;;;;;;0.31;100.00;96918.94;106865;1283;22547;-82
2024/01/01 11:01:15;;;;;;;19.00;17.30;;;;;;;0.28;100.00;96924.96;106633;1283;22603;-82
2024/01/01 11:03:47;;;;;;;18.10;16.40;;;;;;;0.24;100.00;96927.37;106873;1283;24252;-82
2024/01/01 11:06:29;;;;;;;17.60;15.90;;;;;;;0.25;100.00;96924.41;106654;1283;22757;-82
2024/01/01 11:09:20;;;;;;;15.60;14.20;;;;;;;0.23;100.00;96924.98;106793;1283;22553;-82
2024/01/01 11:11:50;;;;;;;15.60;14.20;;;;;;;0.24;100.00;96914.39;106788;1283;24378;-82
2024/01/01 11:14:45;;;;;;;15.50;14.10;;;;;;;0.26;100.00;96911.39;106676;1283;23385;-82
2024/01/01 11:17:22;;;;;;;14.40;13.00;;;;;;;0.23;100.00;96909.73;106639;1283;22563;-82